All Spectrum Aviation - Van Nuys Airport - KVNY

HOME

Condor Squadron KVNY Webcam

Visit our Electronics Store

Condor Squadron Webcam - Van Nuys Airport - KVNY
Picture taken: Wed, 23 Jan 2019 12:25:39 -0800
YouTube Channel!    Latest Timelapse Movie    Full Size Image    Regular Size Image    

2019/01/23 19:51 KVNY 231951Z 13003KT 10SM CLR 20/M06 A3029 RMK AO2 SLP252 T02001056

HOME

Condor Squadron KVNY Webcam

Visit our Electronics Store